Time;durP1;ratioP1;P1;durP2;ratioP2;P2;SDS_P1;SDS_P2;PMS_P1;PMS_P2;Temp;Humidity;BMP_temperature;BMP_pressure;BME280_temperature;BME280_humidity;BME280_pressure;Samples;Min_cycle;Max_cycle;Signal;HPM_P1;HPM_P2
2021/09/30 00:02:07;;;;;;;1.10;0.80;;;22.80;99.90;;;;;;5048705;28;20928;-50
2021/09/30 00:04:34;;;;;;;1.00;0.90;;;22.80;99.90;;;;;;5044629;28;20456;-49
2021/09/30 00:07:05;;;;;;;1.20;0.93;;;22.80;99.90;;;;;;5045851;28;20470;-50
2021/09/30 00:09:32;;;;;;;1.30;1.00;;;22.80;99.90;;;;;;5050573;28;20442;-51
2021/09/30 00:12:06;;;;;;;1.40;0.83;;;22.80;99.90;;;;;;5046751;28;20460;-49
2021/09/30 00:14:41;;;;;;;1.20;0.90;;;22.70;99.90;;;;;;5050345;28;20441;-49
2021/09/30 00:17:27;;;;;;;1.13;0.80;;;22.70;99.90;;;;;;5049415;28;20520;-47
2021/09/30 00:33:47;;;;;;;1.17;0.70;;;22.70;99.90;;;;;;5054019;28;20421;-51
2021/09/30 00:39:37;;;;;;;1.10;0.90;;;22.70;99.90;;;;;;5041007;28;20482;-47
2021/09/30 00:41:52;;;;;;;1.33;0.90;;;22.60;99.90;;;;;;5027462;28;20537;-47
2021/09/30 00:47:11;;;;;;;1.10;0.80;;;22.60;99.90;;;;;;5034220;28;20418;-47
2021/09/30 00:49:48;;;;;;;1.10;0.90;;;22.60;99.90;;;;;;5058226;28;20767;-49
2021/09/30 00:52:19;;;;;;;1.00;0.80;;;22.60;99.90;;;;;;5052572;28;20460;-51
2021/09/30 00:55:22;;;;;;;1.20;0.80;;;22.50;99.90;;;;;;5052875;28;20516;-50
2021/09/30 01:45:44;;;;;;;1.20;0.90;;;22.40;99.90;;;;;;5045269;28;20812;-48
2021/09/30 02:20:18;;;;;;;1.10;0.97;;;22.40;99.90;;;;;;5038349;28;20960;-47
2021/09/30 02:25:45;;;;;;;1.30;0.90;;;22.40;99.90;;;;;;5044078;28;20438;-49
2021/09/30 02:28:39;;;;;;;1.50;1.10;;;22.40;99.90;;;;;;5032524;28;20958;-49
2021/09/30 02:59:16;;;;;;;1.10;0.80;;;22.40;99.90;;;;;;5049387;28;20521;-49
2021/09/30 03:01:46;;;;;;;0.90;0.70;;;22.40;99.90;;;;;;5066474;28;20475;-49
2021/09/30 03:04:14;;;;;;;1.27;0.90;;;22.40;99.90;;;;;;5065857;28;20675;-47
2021/09/30 03:06:43;;;;;;;1.77;0.90;;;22.40;99.90;;;;;;5067288;28;20892;-47
2021/09/30 03:09:12;;;;;;;1.13;0.90;;;22.40;99.90;;;;;;5070170;28;20463;-50
2021/09/30 03:11:40;;;;;;;1.83;1.07;;;22.40;99.90;;;;;;5048445;28;20462;-49
2021/09/30 03:14:09;;;;;;;1.53;0.87;;;22.40;99.90;;;;;;5062018;28;20571;-53
2021/09/30 03:16:41;;;;;;;1.17;0.70;;;22.40;99.90;;;;;;5078942;28;20452;-49
2021/09/30 03:19:18;;;;;;;1.50;0.80;;;22.40;99.90;;;;;;5068206;28;20487;-52
2021/09/30 03:24:32;;;;;;;0.90;0.70;;;22.40;99.90;;;;;;5058564;28;20432;-53
2021/09/30 03:27:02;;;;;;;1.20;0.93;;;22.40;99.90;;;;;;5062868;28;20453;-48
2021/09/30 03:29:29;;;;;;;0.93;0.70;;;22.40;99.90;;;;;;5070330;28;20491;-48
2021/09/30 03:31:56;;;;;;;1.37;0.80;;;22.30;99.90;;;;;;5088102;28;20781;-50
2021/09/30 03:34:23;;;;;;;1.03;0.93;;;22.10;99.90;;;;;;5074101;28;20453;-49
2021/09/30 03:36:51;;;;;;;1.10;0.80;;;22.10;99.90;;;;;;5059194;28;20454;-48
2021/09/30 03:39:23;;;;;;;1.40;1.00;;;22.10;99.90;;;;;;5055899;28;20448;-49
2021/09/30 03:41:49;;;;;;;1.10;0.90;;;22.10;99.90;;;;;;5078564;28;20453;-47
2021/09/30 03:44:16;;;;;;;1.00;0.80;;;22.20;99.90;;;;;;5049585;28;20489;-53
2021/09/30 03:46:43;;;;;;;1.33;1.00;;;22.20;99.90;;;;;;5070755;28;20441;-49
2021/09/30 03:49:13;;;;;;;2.00;1.30;;;22.30;99.90;;;;;;5053013;28;20439;-53
2021/09/30 03:51:50;;;;;;;1.17;0.83;;;22.40;99.90;;;;;;5065423;28;20817;-50
2021/09/30 03:54:25;;;;;;;1.20;1.10;;;22.40;99.90;;;;;;5052408;28;20488;-50
2021/09/30 03:57:03;;;;;;;1.00;0.90;;;22.50;99.90;;;;;;5055505;28;20458;-48
2021/09/30 03:59:30;;;;;;;1.27;1.00;;;22.50;99.90;;;;;;5055154;28;20437;-49
2021/09/30 04:01:57;;;;;;;1.00;0.80;;;22.60;99.90;;;;;;5067316;28;20442;-47
2021/09/30 04:04:26;;;;;;;1.17;0.90;;;22.60;99.90;;;;;;5051226;28;20445;-48
2021/09/30 04:06:54;;;;;;;1.10;0.70;;;22.60;99.90;;;;;;5048057;28;20457;-50
2021/09/30 04:09:26;;;;;;;1.17;0.80;;;22.60;99.90;;;;;;5054079;28;20434;-47
2021/09/30 04:11:54;;;;;;;1.30;0.83;;;22.70;99.90;;;;;;5045676;28;20465;-61
2021/09/30 04:14:21;;;;;;;1.10;0.80;;;22.70;99.90;;;;;;5037737;28;20481;-47
2021/09/30 04:16:48;;;;;;;1.10;1.00;;;22.60;99.90;;;;;;5049374;28;20466;-50
2021/09/30 04:19:15;;;;;;;1.00;0.90;;;22.70;99.90;;;;;;5046031;28;20489;-47
2021/09/30 04:21:43;;;;;;;1.47;0.90;;;22.70;99.90;;;;;;5033828;28;21048;-48
2021/09/30 04:24:09;;;;;;;1.20;0.80;;;22.70;99.90;;;;;;5034083;28;20451;-54
2021/09/30 04:26:37;;;;;;;1.03;0.83;;;22.70;99.90;;;;;;5041340;28;20463;-48
2021/09/30 04:29:04;;;;;;;1.00;0.80;;;22.70;99.90;;;;;;5033360;28;20473;-48
2021/09/30 04:31:31;;;;;;;1.57;1.10;;;22.80;99.90;;;;;;5044626;28;20485;-50
2021/09/30 04:33:58;;;;;;;1.00;0.77;;;22.80;99.90;;;;;;5068294;28;20477;-50
2021/09/30 04:36:25;;;;;;;1.03;0.80;;;22.80;99.90;;;;;;5054718;28;20516;-48
2021/09/30 04:38:51;;;;;;;1.40;0.80;;;22.80;99.90;;;;;;5053851;28;20442;-49
2021/09/30 04:41:20;;;;;;;1.67;1.00;;;22.90;99.90;;;;;;5061501;28;20463;-49
2021/09/30 04:43:49;;;;;;;1.40;0.80;;;22.90;99.90;;;;;;5037494;28;20793;-49
2021/09/30 04:46:17;;;;;;;1.07;0.87;;;22.90;99.90;;;;;;5047090;28;20461;-47
2021/09/30 04:48:44;;;;;;;1.00;0.70;;;22.90;99.90;;;;;;5053358;28;20840;-49
2021/09/30 04:51:11;;;;;;;1.00;0.70;;;22.90;99.90;;;;;;5045143;28;20453;-48
2021/09/30 04:53:38;;;;;;;1.53;0.90;;;22.90;99.90;;;;;;5052881;28;20477;-51
2021/09/30 04:56:05;;;;;;;1.10;0.80;;;22.90;99.90;;;;;;5051857;28;20446;-50
2021/09/30 04:58:32;;;;;;;1.00;0.80;;;22.90;99.90;;;;;;5051458;28;20445;-48
2021/09/30 05:01:00;;;;;;;1.47;0.90;;;22.80;99.90;;;;;;5054919;28;20457;-50
2021/09/30 05:03:27;;;;;;;1.13;0.80;;;22.80;99.90;;;;;;5052137;28;20523;-50
2021/09/30 05:05:53;;;;;;;1.00;0.73;;;22.90;99.90;;;;;;5048089;28;21189;-48
2021/09/30 05:08:20;;;;;;;1.40;0.80;;;22.90;99.90;;;;;;5041518;28;20814;-48
2021/09/30 05:10:48;;;;;;;0.90;0.70;;;22.80;99.90;;;;;;5061383;28;20439;-52
2021/09/30 05:13:18;;;;;;;1.60;1.00;;;22.80;99.90;;;;;;5033358;28;20569;-50
2021/09/30 05:15:45;;;;;;;1.30;0.70;;;22.80;99.90;;;;;;5038932;28;20434;-51
2021/09/30 05:18:13;;;;;;;1.00;0.77;;;22.80;99.90;;;;;;5051532;28;20495;-48
2021/09/30 05:20:40;;;;;;;1.10;0.80;;;22.80;99.90;;;;;;5064058;28;20484;-47
2021/09/30 05:23:07;;;;;;;1.10;0.70;;;22.80;99.90;;;;;;5052461;28;20642;-48
2021/09/30 05:25:35;;;;;;;1.30;0.77;;;22.80;99.90;;;;;;5032095;28;20435;-50
2021/09/30 05:28:02;;;;;;;1.63;1.00;;;22.80;99.90;;;;;;5051386;28;20456;-51
2021/09/30 05:30:29;;;;;;;1.00;0.70;;;22.80;99.90;;;;;;5057309;28;20470;-48
2021/09/30 05:32:56;;;;;;;1.20;0.80;;;22.80;99.90;;;;;;5046053;28;20482;-51
2021/09/30 05:35:24;;;;;;;1.23;0.80;;;22.80;99.90;;;;;;5034484;28;20490;-47
2021/09/30 05:37:51;;;;;;;0.90;0.70;;;22.80;99.90;;;;;;5059956;28;20441;-48
2021/09/30 05:40:19;;;;;;;1.00;0.80;;;22.80;99.90;;;;;;5059116;28;20445;-48
2021/09/30 05:42:46;;;;;;;1.10;0.80;;;22.70;99.90;;;;;;5036461;28;20463;-49
2021/09/30 05:45:15;;;;;;;2.83;0.73;;;22.80;99.90;;;;;;5031206;28;20454;-49
2021/09/30 05:47:43;;;;;;;1.10;0.80;;;22.80;99.90;;;;;;5045421;28;20441;-52
2021/09/30 05:50:10;;;;;;;1.40;0.83;;;22.80;99.90;;;;;;5056497;28;20471;-48
2021/09/30 05:52:38;;;;;;;1.60;0.87;;;22.80;99.90;;;;;;5032224;28;20509;-49
2021/09/30 05:55:07;;;;;;;1.10;0.90;;;22.80;99.90;;;;;;5047202;28;20453;-53
2021/09/30 05:57:34;;;;;;;1.30;1.00;;;22.80;99.90;;;;;;5043309;28;20458;-48
2021/09/30 06:00:10;;;;;;;0.90;0.70;;;22.80;99.90;;;;;;5049467;28;20457;-51
2021/09/30 06:10:53;;;;;;;1.83;1.00;;;22.80;99.90;;;;;;5032848;28;20510;-54
2021/09/30 06:13:25;;;;;;;1.17;0.80;;;22.80;99.90;;;;;;5049191;28;20536;-49
2021/09/30 06:15:52;;;;;;;1.00;0.70;;;22.80;99.90;;;;;;5048901;28;20447;-57
2021/09/30 06:18:19;;;;;;;3.30;0.80;;;22.80;99.90;;;;;;5045057;28;20446;-49
2021/09/30 06:20:47;;;;;;;1.20;0.70;;;22.90;99.90;;;;;;5035364;28;20525;-49
2021/09/30 06:23:15;;;;;;;1.23;0.70;;;22.90;99.90;;;;;;5041314;28;20905;-49
2021/09/30 06:25:41;;;;;;;2.27;0.90;;;22.90;99.90;;;;;;5055770;28;20990;-51
2021/09/30 06:28:08;;;;;;;5.50;1.37;;;22.80;99.90;;;;;;5049706;28;20941;-52
2021/09/30 06:30:35;;;;;;;1.20;0.90;;;22.80;99.90;;;;;;5049049;28;20786;-49
2021/09/30 06:33:01;;;;;;;1.10;0.80;;;22.80;99.90;;;;;;5040657;28;20454;-50
2021/09/30 06:35:28;;;;;;;1.80;1.10;;;22.70;99.90;;;;;;5062902;28;20449;-49
2021/09/30 06:37:55;;;;;;;4.13;0.90;;;22.70;99.90;;;;;;5031713;28;20443;-48
2021/09/30 06:40:23;;;;;;;2.47;1.00;;;22.60;99.90;;;;;;5049650;28;20503;-52
2021/09/30 06:42:50;;;;;;;1.70;1.00;;;22.60;99.90;;;;;;5030462;28;20458;-48
2021/09/30 06:45:17;;;;;;;3.17;1.30;;;22.60;99.90;;;;;;5062415;28;20441;-49
2021/09/30 06:47:43;;;;;;;3.83;1.20;;;22.60;99.90;;;;;;5061869;28;21006;-49
2021/09/30 06:50:12;;;;;;;4.20;2.00;;;22.50;99.90;;;;;;5037097;28;20470;-50
2021/09/30 06:52:39;;;;;;;3.00;1.20;;;22.50;99.90;;;;;;5045260;28;20933;-51
2021/09/30 06:55:07;;;;;;;3.77;1.20;;;22.50;99.90;;;;;;5042452;28;20478;-53
2021/09/30 06:57:35;;;;;;;1.97;0.97;;;22.50;99.90;;;;;;5044325;28;20528;-48
2021/09/30 07:00:06;;;;;;;3.80;1.30;;;22.40;99.90;;;;;;5049972;28;20446;-48
2021/09/30 07:02:33;;;;;;;1.40;1.10;;;22.40;99.90;;;;;;5051519;28;20453;-49
2021/09/30 07:05:00;;;;;;;2.93;1.17;;;22.40;99.90;;;;;;5041730;28;20853;-49
2021/09/30 07:07:27;;;;;;;1.93;1.00;;;22.40;99.90;;;;;;5039818;28;20513;-52
2021/09/30 07:09:54;;;;;;;3.13;1.30;;;22.40;99.90;;;;;;5030235;28;20520;-50
2021/09/30 07:12:21;;;;;;;5.10;1.90;;;22.40;99.90;;;;;;5030366;28;20451;-49
2021/09/30 07:14:49;;;;;;;2.67;1.43;;;22.40;99.90;;;;;;5030328;28;20483;-50
2021/09/30 07:17:15;;;;;;;7.60;1.27;;;22.50;99.90;;;;;;5061106;28;20453;-50
2021/09/30 07:19:42;;;;;;;3.63;1.33;;;22.50;99.90;;;;;;5043569;28;20455;-49
2021/09/30 07:22:10;;;;;;;3.60;1.40;;;22.60;99.90;;;;;;5053852;28;20944;-54
2021/09/30 07:24:37;;;;;;;9.43;1.50;;;22.60;99.90;;;;;;5045791;28;20453;-49
2021/09/30 07:27:04;;;;;;;1.77;1.00;;;22.60;99.90;;;;;;5037717;28;20459;-46
2021/09/30 07:29:31;;;;;;;14.03;1.43;;;22.60;99.90;;;;;;5052518;28;21005;-47
2021/09/30 07:31:59;;;;;;;2.40;1.23;;;22.60;99.90;;;;;;5052150;28;20936;-55
2021/09/30 07:34:26;;;;;;;4.90;1.23;;;22.60;99.90;;;;;;5053651;28;20984;-48
2021/09/30 07:36:53;;;;;;;2.50;1.20;;;22.70;99.90;;;;;;5053326;28;20513;-49
2021/09/30 07:39:20;;;;;;;5.67;1.43;;;22.70;99.90;;;;;;5054471;28;20575;-48
2021/09/30 07:41:47;;;;;;;3.10;1.27;;;22.60;99.00;;;;;;5043677;28;21336;-50
2021/09/30 07:44:14;;;;;;;2.53;1.43;;;22.60;99.40;;;;;;5037667;28;20462;-56
2021/09/30 07:46:42;;;;;;;5.80;1.60;;;22.70;99.90;;;;;;5054558;28;20442;-47
2021/09/30 07:49:12;;;;;;;2.77;2.10;;;22.80;99.60;;;;;;5037275;28;20462;-53
2021/09/30 07:51:39;;;;;;;3.17;1.70;;;22.90;99.50;;;;;;5051193;28;20464;-51
2021/09/30 07:54:07;;;;;;;3.43;1.13;;;23.00;99.60;;;;;;5050808;28;20469;-52
2021/09/30 07:56:34;;;;;;;3.53;1.27;;;23.00;99.50;;;;;;5051335;28;20450;-50
2021/09/30 07:59:01;;;;;;;4.20;1.60;;;23.00;97.90;;;;;;5044154;28;20503;-46
2021/09/30 08:01:28;;;;;;;3.77;1.83;;;22.90;94.70;;;;;;5053115;28;20548;-49
2021/09/30 08:03:57;;;;;;;3.20;1.30;;;22.90;95.40;;;;;;5049037;28;20876;-50
2021/09/30 08:06:25;;;;;;;2.40;1.23;;;22.90;96.20;;;;;;5048003;28;20450;-57
2021/09/30 08:08:52;;;;;;;3.47;1.27;;;22.90;96.80;;;;;;5040764;28;20957;-54
2021/09/30 08:11:19;;;;;;;2.10;1.60;;;22.80;97.10;;;;;;5046233;28;20465;-50
2021/09/30 08:13:45;;;;;;;2.47;1.10;;;22.80;97.10;;;;;;5039831;28;20478;-48
2021/09/30 08:16:14;;;;;;;3.60;1.27;;;22.90;97.20;;;;;;5034787;28;20682;-48
2021/09/30 08:18:40;;;;;;;4.03;1.70;;;22.90;97.60;;;;;;5033974;28;20493;-53
2021/09/30 08:21:12;;;;;;;3.80;1.83;;;22.90;97.70;;;;;;5051041;28;20816;-51
2021/09/30 08:23:41;;;;;;;4.37;1.77;;;22.90;97.80;;;;;;5041608;28;20455;-49
2021/09/30 08:26:07;;;;;;;2.37;1.20;;;22.90;97.90;;;;;;5041442;28;20443;-48
2021/09/30 08:28:36;;;;;;;2.10;1.17;;;22.90;98.10;;;;;;5034135;28;20451;-48
2021/09/30 08:31:03;;;;;;;2.50;1.80;;;23.00;98.20;;;;;;5049432;28;20466;-53
2021/09/30 08:33:29;;;;;;;1.90;1.20;;;23.00;98.30;;;;;;5052912;28;20453;-53
2021/09/30 08:35:56;;;;;;;3.10;1.30;;;23.00;98.50;;;;;;5051959;28;20462;-50
2021/09/30 08:38:23;;;;;;;1.87;1.20;;;23.00;98.50;;;;;;5034077;28;20447;-54
2021/09/30 08:40:52;;;;;;;1.50;1.03;;;23.00;98.60;;;;;;5033847;28;21015;-53
2021/09/30 08:43:19;;;;;;;2.50;1.20;;;23.00;98.70;;;;;;5050347;28;20453;-49
2021/09/30 08:45:45;;;;;;;1.30;0.90;;;23.10;98.80;;;;;;5053565;28;20442;-53
2021/09/30 08:48:12;;;;;;;1.40;1.20;;;23.10;98.90;;;;;;5047962;28;20459;-49
2021/09/30 08:50:40;;;;;;;2.30;1.10;;;23.10;98.90;;;;;;5041332;28;20518;-49
2021/09/30 08:53:08;;;;;;;1.93;1.47;;;23.10;99.00;;;;;;5046419;28;20489;-51
2021/09/30 08:55:35;;;;;;;2.17;1.33;;;23.10;99.10;;;;;;5045000;28;20506;-48
2021/09/30 08:58:04;;;;;;;1.43;1.00;;;23.10;99.20;;;;;;5033349;28;20465;-48
2021/09/30 09:00:33;;;;;;;2.00;0.90;;;23.10;99.20;;;;;;5033289;28;20853;-49
2021/09/30 09:02:59;;;;;;;2.27;1.00;;;23.10;99.30;;;;;;5045613;28;20455;-51
2021/09/30 09:05:27;;;;;;;4.57;1.30;;;23.10;99.40;;;;;;5043629;28;20462;-51
2021/09/30 09:07:55;;;;;;;1.77;1.00;;;23.10;99.40;;;;;;5053171;28;20437;-53
2021/09/30 09:10:24;;;;;;;1.50;0.90;;;23.10;99.50;;;;;;5039167;28;20451;-48
2021/09/30 09:13:09;;;;;;;2.43;1.20;;;23.10;99.60;;;;;;5047644;28;20552;-48
2021/09/30 09:15:44;;;;;;;1.37;0.93;;;23.10;99.60;;;;;;5050333;28;20482;-49
2021/09/30 09:18:16;;;;;;;1.77;1.03;;;23.00;99.60;;;;;;5044761;28;20492;-57
2021/09/30 09:20:45;;;;;;;3.27;1.13;;;23.10;99.70;;;;;;5049793;28;20446;-52
2021/09/30 09:23:12;;;;;;;2.63;1.17;;;23.10;99.80;;;;;;5047991;28;20976;-48
2021/09/30 09:25:39;;;;;;;2.80;1.30;;;23.10;99.90;;;;;;5058941;28;20450;-50
2021/09/30 09:28:07;;;;;;;4.50;1.40;;;23.10;99.80;;;;;;5033666;28;20459;-51
2021/09/30 09:30:38;;;;;;;18.57;1.60;;;23.10;99.90;;;;;;5040417;28;20477;-54
2021/09/30 09:33:11;;;;;;;9.50;1.70;;;23.10;99.90;;;;;;5052167;28;20465;-52
2021/09/30 09:35:52;;;;;;;1.60;1.13;;;23.00;99.90;;;;;;5043798;28;20481;-53
2021/09/30 09:38:20;;;;;;;6.50;1.57;;;23.00;99.90;;;;;;5037489;28;20533;-52
2021/09/30 09:40:46;;;;;;;3.57;1.30;;;23.00;99.90;;;;;;5035805;28;20439;-47
2021/09/30 09:43:34;;;;;;;4.70;1.20;;;23.10;99.90;;;;;;5042090;28;20497;-52
2021/09/30 09:46:02;;;;;;;4.87;1.43;;;23.00;99.90;;;;;;5037693;28;20477;-54
2021/09/30 09:48:32;;;;;;;3.87;1.30;;;23.00;99.90;;;;;;5039045;28;20515;-54
2021/09/30 09:50:59;;;;;;;2.83;1.00;;;23.00;99.90;;;;;;5039676;28;20467;-50
2021/09/30 09:53:27;;;;;;;6.63;1.40;;;23.00;99.90;;;;;;5032000;28;20462;-54
2021/09/30 09:56:07;;;;;;;5.17;1.40;;;22.90;99.90;;;;;;5031874;28;20852;-52
2021/09/30 09:58:47;;;;;;;14.00;1.90;;;22.90;99.90;;;;;;5034089;28;20810;-51
2021/09/30 10:01:14;;;;;;;3.03;1.40;;;22.90;99.90;;;;;;5038097;28;20461;-50
2021/09/30 10:03:51;;;;;;;3.07;1.60;;;22.80;99.90;;;;;;5048815;28;20507;-52
2021/09/30 10:06:18;;;;;;;2.10;1.03;;;22.80;99.90;;;;;;5044638;28;20861;-51
2021/09/30 10:08:46;;;;;;;4.03;1.17;;;22.80;99.90;;;;;;5031936;28;20945;-50
2021/09/30 10:11:13;;;;;;;4.67;1.10;;;22.80;99.90;;;;;;5032224;28;20523;-50
2021/09/30 10:13:39;;;;;;;1.23;1.00;;;22.80;99.90;;;;;;5039729;28;21020;-49
2021/09/30 10:16:07;;;;;;;3.10;1.80;;;22.80;99.60;;;;;;5046153;28;20539;-55
2021/09/30 10:18:34;;;;;;;4.27;1.20;;;22.90;99.70;;;;;;5040771;28;20512;-55
2021/09/30 10:21:01;;;;;;;4.67;1.30;;;22.90;99.60;;;;;;5030396;28;20517;-49
2021/09/30 10:23:29;;;;;;;10.20;1.83;;;22.90;99.20;;;;;;5034921;28;20449;-51
2021/09/30 10:25:59;;;;;;;2.47;1.10;;;22.90;99.20;;;;;;5030846;28;20442;-54
2021/09/30 10:28:27;;;;;;;2.87;1.40;;;22.90;99.30;;;;;;5039060;28;20457;-49
2021/09/30 10:30:55;;;;;;;2.73;1.30;;;23.00;99.50;;;;;;5043246;28;20466;-49
2021/09/30 10:33:39;;;;;;;3.30;1.57;;;22.90;99.20;;;;;;5044170;28;20545;-55
2021/09/30 10:36:39;;;;;;;8.17;2.00;;;22.80;94.90;;;;;;5038563;28;20489;-51
2021/09/30 10:39:28;;;;;;;5.37;1.30;;;22.70;92.30;;;;;;5043783;28;20484;-50
2021/09/30 10:41:58;;;;;;;7.80;1.70;;;22.70;94.60;;;;;;5031752;28;20458;-50
2021/09/30 10:44:30;;;;;;;3.47;1.37;;;22.60;93.90;;;;;;5031084;28;20467;-54
2021/09/30 10:46:58;;;;;;;2.10;1.10;;;22.60;93.50;;;;;;5040399;28;20465;-56
2021/09/30 10:49:42;;;;;;;1.93;1.10;;;22.70;94.20;;;;;;5034292;28;20459;-59
2021/09/30 10:52:25;;;;;;;3.90;1.70;;;22.70;94.50;;;;;;5049116;28;20813;-57
2021/09/30 10:55:11;;;;;;;5.73;1.13;;;22.70;94.70;;;;;;5050922;28;20493;-58
2021/09/30 10:57:39;;;;;;;1.93;1.17;;;22.70;95.80;;;;;;5036356;28;20960;-54
2021/09/30 11:00:08;;;;;;;7.63;1.50;;;22.80;95.10;;;;;;5038068;28;20454;-59
2021/09/30 11:03:10;;;;;;;11.10;1.43;;;22.90;95.60;;;;;;5047387;28;20852;-62
2021/09/30 11:05:40;;;;;;;1.50;1.07;;;22.90;95.10;;;;;;5049365;28;20448;-62
2021/09/30 11:08:23;;;;;;;3.90;1.53;;;22.90;95.10;;;;;;5052258;28;20479;-67
2021/09/30 11:11:10;;;;;;;5.10;1.10;;;23.00;95.10;;;;;;5048999;28;20439;-63
2021/09/30 11:13:39;;;;;;;1.80;1.10;;;23.00;95.50;;;;;;5062627;28;20969;-58
2021/09/30 11:16:08;;;;;;;3.83;1.00;;;23.10;95.40;;;;;;5045936;28;20474;-59
2021/09/30 11:18:47;;;;;;;3.13;1.40;;;23.10;95.50;;;;;;5034797;28;20496;-59
2021/09/30 11:21:44;;;;;;;2.10;1.00;;;23.20;95.20;;;;;;5037022;28;20450;-59
2021/09/30 11:24:21;;;;;;;1.80;1.13;;;23.20;95.10;;;;;;5062584;28;20441;-60
2021/09/30 11:27:08;;;;;;;4.10;1.40;;;23.20;94.10;;;;;;5041196;28;20455;-57
2021/09/30 11:29:34;;;;;;;2.30;1.07;;;23.20;93.70;;;;;;5051414;28;20492;-61
2021/09/30 11:32:27;;;;;;;4.87;1.47;;;23.20;93.60;;;;;;5048001;28;20442;-62
2021/09/30 11:35:03;;;;;;;4.57;1.50;;;23.20;93.20;;;;;;5052962;28;20477;-62
2021/09/30 11:37:42;;;;;;;3.77;1.30;;;23.20;93.60;;;;;;5037100;28;20454;-62
2021/09/30 11:40:21;;;;;;;3.00;1.40;;;23.20;93.60;;;;;;5046533;28;20442;-59
2021/09/30 11:42:51;;;;;;;3.17;1.30;;;23.20;93.60;;;;;;5046207;28;20449;-59
2021/09/30 11:45:21;;;;;;;1.70;1.20;;;23.20;93.70;;;;;;5062524;28;20449;-61
2021/09/30 11:47:49;;;;;;;8.10;1.40;;;23.20;94.00;;;;;;5052449;28;20958;-63
2021/09/30 11:50:19;;;;;;;4.97;2.03;;;23.20;93.70;;;;;;5046785;28;20509;-63
2021/09/30 11:53:00;;;;;;;2.13;1.17;;;23.30;93.80;;;;;;5034321;28;20834;-64
2021/09/30 11:55:29;;;;;;;4.10;1.37;;;23.30;93.60;;;;;;5047879;28;20485;-64
2021/09/30 11:57:58;;;;;;;3.03;0.93;;;23.40;93.50;;;;;;5049471;28;20714;-62
2021/09/30 12:00:26;;;;;;;3.00;1.43;;;23.40;93.30;;;;;;5045999;28;20451;-60
2021/09/30 12:02:54;;;;;;;2.93;1.30;;;23.40;91.70;;;;;;5053690;28;20794;-58
2021/09/30 12:05:24;;;;;;;2.60;1.10;;;23.50;92.60;;;;;;5047044;28;20459;-60
2021/09/30 12:07:52;;;;;;;2.13;1.20;;;23.50;92.20;;;;;;5047297;28;20969;-59
2021/09/30 12:10:19;;;;;;;6.03;1.30;;;23.50;91.30;;;;;;5038253;28;20482;-60
2021/09/30 12:12:46;;;;;;;3.73;1.80;;;23.50;91.20;;;;;;5045737;28;20460;-60
2021/09/30 12:15:13;;;;;;;1.97;1.10;;;23.60;91.90;;;;;;5054118;28;20477;-60
2021/09/30 12:17:40;;;;;;;2.37;1.27;;;23.50;91.40;;;;;;5053847;28;20824;-59
2021/09/30 12:20:09;;;;;;;3.83;1.30;;;23.50;91.30;;;;;;5041667;28;20467;-60
2021/09/30 12:22:38;;;;;;;2.63;1.30;;;23.60;91.00;;;;;;5050673;28;20461;-63
2021/09/30 12:25:10;;;;;;;2.07;1.20;;;23.60;90.90;;;;;;5053304;28;20504;-61
2021/09/30 12:27:40;;;;;;;3.60;1.23;;;23.50;90.60;;;;;;5039192;28;20509;-59
2021/09/30 12:30:09;;;;;;;1.40;1.00;;;23.50;90.70;;;;;;5040905;28;20459;-63
2021/09/30 12:32:38;;;;;;;2.17;1.00;;;23.50;90.30;;;;;;5051844;28;20458;-63
2021/09/30 12:35:07;;;;;;;3.40;1.40;;;23.50;89.70;;;;;;5055164;28;21050;-63
2021/09/30 12:37:37;;;;;;;1.80;1.10;;;23.50;88.40;;;;;;5045712;28;20551;-59
2021/09/30 12:40:08;;;;;;;3.00;1.30;;;23.50;84.90;;;;;;5039949;28;20497;-62
2021/09/30 12:42:36;;;;;;;4.80;1.30;;;23.50;83.80;;;;;;5042794;28;20462;-54
2021/09/30 12:45:05;;;;;;;4.50;1.67;;;23.50;84.00;;;;;;5033460;28;20454;-62
2021/09/30 12:47:34;;;;;;;3.80;1.23;;;23.50;82.30;;;;;;5046839;28;20454;-60
2021/09/30 12:50:03;;;;;;;1.80;1.20;;;23.50;84.10;;;;;;5061104;28;20494;-61
2021/09/30 12:52:31;;;;;;;2.00;1.30;;;23.50;84.90;;;;;;5049910;28;20457;-62
2021/09/30 12:54:58;;;;;;;4.77;1.17;;;23.50;85.30;;;;;;5048351;28;20941;-62
2021/09/30 12:57:34;;;;;;;2.77;1.40;;;23.50;85.60;;;;;;5047464;28;20508;-60
2021/09/30 13:00:13;;;;;;;3.50;1.37;;;23.40;86.50;;;;;;5044960;28;20500;-62
2021/09/30 13:02:40;;;;;;;2.40;1.27;;;23.40;87.20;;;;;;5046809;28;20453;-64
2021/09/30 13:05:08;;;;;;;2.33;1.07;;;23.40;87.60;;;;;;5052847;28;20441;-64
2021/09/30 13:07:46;;;;;;;3.00;1.30;;;23.40;87.90;;;;;;5043447;28;20499;-58
2021/09/30 13:10:15;;;;;;;2.53;1.10;;;23.40;89.40;;;;;;5047924;28;20450;-59
2021/09/30 13:13:05;;;;;;;2.80;0.97;;;23.40;89.20;;;;;;5042536;28;20509;-60
2021/09/30 13:15:37;;;;;;;1.47;0.90;;;23.40;89.80;;;;;;5045242;28;20470;-61
2021/09/30 13:18:06;;;;;;;2.60;1.10;;;23.40;90.00;;;;;;5043896;28;20443;-60
2021/09/30 13:20:32;;;;;;;5.00;1.10;;;23.50;90.10;;;;;;5047086;28;20515;-64
2021/09/30 13:22:59;;;;;;;3.17;1.43;;;23.50;90.40;;;;;;5039287;28;20527;-61
2021/09/30 13:25:26;;;;;;;3.10;1.57;;;23.50;90.50;;;;;;5034273;28;20496;-64
2021/09/30 13:27:53;;;;;;;2.87;1.17;;;23.40;90.50;;;;;;5045131;28;20461;-64
2021/09/30 13:30:24;;;;;;;3.80;1.30;;;23.40;90.80;;;;;;5041058;28;20799;-62
2021/09/30 13:32:52;;;;;;;3.23;1.10;;;23.50;91.00;;;;;;5044205;28;20536;-63
2021/09/30 13:35:23;;;;;;;2.97;1.13;;;23.50;91.00;;;;;;5032416;28;20483;-62
2021/09/30 13:37:50;;;;;;;2.60;0.90;;;23.50;91.20;;;;;;5040300;28;20477;-65
2021/09/30 13:40:17;;;;;;;2.63;1.00;;;23.50;91.20;;;;;;5051956;28;20491;-60
2021/09/30 13:42:44;;;;;;;1.10;0.70;;;23.40;91.40;;;;;;5041922;28;20864;-59
2021/09/30 13:45:13;;;;;;;1.90;1.00;;;23.50;91.60;;;;;;5049867;28;21018;-61
2021/09/30 13:47:42;;;;;;;2.80;1.10;;;23.40;91.70;;;;;;5054652;28;20499;-54
2021/09/30 13:50:13;;;;;;;3.00;0.80;;;23.50;91.90;;;;;;5035741;28;20458;-60
2021/09/30 13:52:40;;;;;;;2.53;1.10;;;23.50;91.30;;;;;;5047331;28;20450;-56
2021/09/30 13:55:08;;;;;;;1.43;1.00;;;23.40;91.30;;;;;;5041531;28;20810;-60
2021/09/30 13:57:35;;;;;;;2.10;0.90;;;23.30;91.30;;;;;;5058844;28;20457;-64
2021/09/30 14:00:03;;;;;;;2.60;1.27;;;23.20;91.60;;;;;;5041472;28;20467;-60
2021/09/30 14:02:30;;;;;;;2.83;1.20;;;23.20;91.20;;;;;;5042405;28;20450;-59
2021/09/30 14:04:58;;;;;;;4.53;1.20;;;23.10;91.90;;;;;;5051095;28;20434;-57
2021/09/30 14:07:24;;;;;;;3.10;0.90;;;23.10;91.50;;;;;;5031782;28;20451;-57
2021/09/30 14:09:51;;;;;;;2.37;1.07;;;23.00;91.70;;;;;;5034204;28;20442;-59
2021/09/30 14:12:18;;;;;;;2.77;1.00;;;23.00;92.20;;;;;;5040594;28;20458;-60
2021/09/30 14:14:45;;;;;;;3.23;1.33;;;23.00;91.90;;;;;;5043389;28;20983;-59
2021/09/30 14:17:11;;;;;;;3.17;0.97;;;23.00;91.60;;;;;;5060252;28;20525;-61
2021/09/30 14:19:38;;;;;;;1.60;0.70;;;22.90;92.00;;;;;;5055583;28;21003;-61
2021/09/30 14:22:06;;;;;;;1.63;1.00;;;22.90;91.90;;;;;;5043087;28;20511;-59
2021/09/30 14:24:33;;;;;;;1.40;1.03;;;22.90;92.10;;;;;;5044816;28;20461;-64
2021/09/30 14:27:01;;;;;;;2.23;0.77;;;22.90;91.80;;;;;;5031608;28;20475;-61
2021/09/30 14:29:28;;;;;;;2.10;1.27;;;22.90;92.10;;;;;;5050701;28;20817;-61
2021/09/30 14:31:55;;;;;;;3.47;0.93;;;22.90;92.00;;;;;;5032213;28;20485;-60
2021/09/30 14:34:22;;;;;;;1.23;0.83;;;22.90;91.80;;;;;;5038272;28;20461;-65
2021/09/30 14:36:48;;;;;;;2.00;0.90;;;22.90;92.50;;;;;;5041041;28;20564;-64
2021/09/30 14:39:16;;;;;;;1.20;0.90;;;23.00;92.40;;;;;;5045374;28;20520;-62
2021/09/30 14:41:43;;;;;;;4.50;1.43;;;23.00;92.50;;;;;;5045658;28;20458;-64
2021/09/30 14:44:10;;;;;;;1.20;1.10;;;23.10;92.90;;;;;;5052085;28;20483;-60
2021/09/30 14:46:36;;;;;;;1.30;0.90;;;23.20;92.40;;;;;;5034525;28;20466;-65
2021/09/30 14:49:03;;;;;;;1.70;1.00;;;23.20;92.50;;;;;;5042380;28;20521;-64
2021/09/30 14:51:30;;;;;;;2.27;1.00;;;23.20;92.50;;;;;;5043264;28;20756;-61
2021/09/30 14:53:56;;;;;;;1.63;0.80;;;23.20;92.60;;;;;;5043030;28;20466;-61
2021/09/30 14:56:24;;;;;;;2.03;0.80;;;23.20;92.80;;;;;;5031987;28;20578;-61
2021/09/30 14:58:51;;;;;;;1.67;1.10;;;23.20;92.60;;;;;;5049745;28;20446;-60
2021/09/30 15:01:21;;;;;;;1.97;0.90;;;23.30;92.30;;;;;;5049577;28;20485;-62
2021/09/30 15:03:47;;;;;;;2.00;0.87;;;23.30;91.70;;;;;;5052275;28;20965;-63
2021/09/30 15:06:14;;;;;;;4.20;1.20;;;23.30;92.20;;;;;;5034659;28;20470;-58
2021/09/30 15:08:41;;;;;;;2.93;0.90;;;23.30;92.40;;;;;;5050991;28;20442;-58
2021/09/30 15:11:08;;;;;;;1.20;0.90;;;23.30;92.60;;;;;;5051210;28;20440;-62
2021/09/30 15:13:36;;;;;;;1.93;0.90;;;23.40;92.60;;;;;;5045954;28;20462;-59
2021/09/30 15:16:05;;;;;;;1.37;0.90;;;23.30;92.60;;;;;;5049377;28;20481;-64
2021/09/30 15:18:50;;;;;;;2.10;1.10;;;23.30;92.80;;;;;;5043757;28;20462;-64
2021/09/30 15:21:24;;;;;;;1.50;0.93;;;23.30;92.90;;;;;;5055754;28;20452;-64